This is the latest recevied weather packets stored in our database for station/object EA1HEH-13. If no packets are shown the sender has not sent any weather packets the latest 10 day(s).
| Time | Temp. | Humidity | Pressure | Rain* | Wind** | Luminosity | Snow |
|---|---|---|---|---|---|---|---|
| 1778257547 | 16.67° C | 43% | 928.9 hPa | - | - | - | - |
| 1778256947 | 16.67° C | 42% | 929.1 hPa | - | - | - | - |
| 1778256347 | 16.67° C | 43% | 929.1 hPa | - | - | - | - |
| 1778255747 | 16.67° C | 44% | 929 hPa | - | - | - | - |
| 1778255147 | 16.67° C | 45% | 929 hPa | - | - | - | - |
| 1778254548 | 17.22° C | 47% | 928.9 hPa | - | - | - | - |
| 1778253947 | 16.67° C | 47% | 929 hPa | - | - | - | - |
| 1778253347 | 16.67° C | 47% | 929 hPa | - | - | - | - |
| 1778252747 | 16.67° C | 48% | 929 hPa | - | - | - | - |
| 1778252147 | 16.11° C | 49% | 929 hPa | - | - | - | - |
| 1778251547 | 15.56° C | 49% | 929.2 hPa | - | - | - | - |
| 1778250947 | 16.11° C | 50% | 929.3 hPa | - | - | - | - |
| 1778250347 | 16.11° C | 48% | 929.5 hPa | - | - | - | - |
| 1778249747 | 16.11° C | 47% | 929.6 hPa | - | - | - | - |
| 1778249147 | 16.11° C | 47% | 929.5 hPa | - | - | - | - |
| 1778248547 | 16.11° C | 45% | 929.4 hPa | - | - | - | - |
| 1778247947 | 16.67° C | 49% | 929 hPa | - | - | - | - |
| 1778247347 | 16.11° C | 49% | 929.1 hPa | - | - | - | - |
| 1778246747 | 15.56° C | 50% | 929.3 hPa | - | - | - | - |
| 1778246147 | 15° C | 49% | 929.5 hPa | - | - | - | - |
| 1778245547 | 14.44° C | 49% | 929.5 hPa | - | - | - | - |
| 1778244947 | 14.44° C | 48% | 929.8 hPa | - | - | - | - |
| 1778244347 | 16.67° C | 41% | 930.6 hPa | - | - | - | - |
| 1778243747 | 17.78° C | 30% | 929.7 hPa | - | - | - | - |
| 1778243147 | 17.78° C | 31% | 929.8 hPa | - | - | - | - |
* Rain since midnight (hover to see other rain measurements)
** Current wind speed in m/s (hover to see current wind gust speed)